createdAt,value
2019-01-18T00:04:00.242Z,2.70
2019-01-18T00:12:17.249Z,2.50
2019-01-18T00:15:04.907Z,1.17
2019-01-18T00:17:33.300Z,1.40
2019-01-18T00:20:01.695Z,2.83
2019-01-18T00:22:30.125Z,1.83
2019-01-18T00:24:58.517Z,1.80
2019-01-18T00:27:26.903Z,1.80
2019-01-18T00:32:29.666Z,1.87
2019-01-18T00:34:58.102Z,1.00
2019-01-18T00:37:26.498Z,3.13
2019-01-18T00:39:54.899Z,2.10
2019-01-18T00:44:56.869Z,0.93
2019-01-18T00:47:25.328Z,0.80
2019-01-18T00:52:27.724Z,1.13
2019-01-18T00:54:56.143Z,1.37
2019-01-18T00:57:24.538Z,1.77
2019-01-18T00:59:52.934Z,3.73
2019-01-18T01:04:55.296Z,1.00
2019-01-18T01:09:58.094Z,1.17
2019-01-18T01:17:58.645Z,1.10
2019-01-18T01:20:27.035Z,1.57
2019-01-18T01:22:57.762Z,2.27
2019-01-18T01:25:45.416Z,1.07
2019-01-18T01:28:25.770Z,0.80
2019-01-18T01:30:54.178Z,5.33
2019-01-18T01:33:22.590Z,1.90
2019-01-18T01:35:50.966Z,1.23
2019-01-18T01:38:19.388Z,2.53
2019-01-18T01:40:47.868Z,2.03
2019-01-18T01:43:35.538Z,1.47
2019-01-18T01:49:12.143Z,1.80
2019-01-18T01:52:20.486Z,0.83
2019-01-18T01:57:43.678Z,1.70
2019-01-18T02:00:51.996Z,1.87
2019-01-18T02:03:39.822Z,1.73
2019-01-18T02:06:08.217Z,2.57
2019-01-18T02:08:36.607Z,1.10
2019-01-18T02:11:05.100Z,2.03
2019-01-18T02:13:33.540Z,0.83
2019-01-18T02:16:01.951Z,3.60
2019-01-18T02:18:49.646Z,1.63
2019-01-18T02:21:18.040Z,2.53
2019-01-18T02:23:46.438Z,2.90
2019-01-18T02:26:14.847Z,1.43
2019-01-18T02:28:43.245Z,1.70
2019-01-18T02:31:23.778Z,1.07
2019-01-18T02:33:52.183Z,0.40
2019-01-18T02:36:20.564Z,1.73
2019-01-18T02:38:48.994Z,0.57
2019-01-18T02:41:36.578Z,1.33
2019-01-18T02:44:05.103Z,0.70
2019-01-18T02:46:33.507Z,0.50
2019-01-18T02:49:01.928Z,1.33
2019-01-18T02:54:23.650Z,2.33
2019-01-18T02:57:11.462Z,2.83
2019-01-18T02:59:39.863Z,0.60
2019-01-18T03:02:27.638Z,0.80
2019-01-18T03:04:56.020Z,0.90
2019-01-18T03:07:24.521Z,2.17
2019-01-18T03:12:27.222Z,1.23
2019-01-18T03:17:29.266Z,3.97
2019-01-18T03:19:57.680Z,2.93
2019-01-18T03:22:26.065Z,1.20
2019-01-18T03:25:13.767Z,1.97
2019-01-18T03:27:42.160Z,1.33
2019-01-18T03:30:50.592Z,1.00
2019-01-18T03:33:18.980Z,2.50
2019-01-18T03:35:47.419Z,2.33
2019-01-18T03:38:15.826Z,1.87
2019-01-18T03:40:44.216Z,0.70
2019-01-18T03:43:12.739Z,1.10
2019-01-18T03:48:15.150Z,1.20
2019-01-18T03:50:43.543Z,2.87
2019-01-18T03:53:11.954Z,2.90
2019-01-18T03:55:40.347Z,6.00
2019-01-18T04:03:37.801Z,2.70
2019-01-18T04:06:06.248Z,1.00
2019-01-18T04:08:34.640Z,4.63
2019-01-18T04:11:03.036Z,2.27
2019-01-18T04:16:45.340Z,2.90
2019-01-18T04:21:48.160Z,2.07
2019-01-18T04:24:16.604Z,2.20
2019-01-18T04:26:44.993Z,2.37
2019-01-18T04:29:13.381Z,2.93
2019-01-18T04:34:15.722Z,2.03
2019-01-18T04:36:44.138Z,2.13
2019-01-18T04:39:12.518Z,2.50
2019-01-18T04:41:40.914Z,2.47
2019-01-18T04:44:09.343Z,2.47
2019-01-18T04:46:37.730Z,3.90
2019-01-18T04:49:06.126Z,3.50
2019-01-18T04:51:34.533Z,2.70
2019-01-18T04:54:02.930Z,2.70
2019-01-18T04:56:31.398Z,2.23
2019-01-18T05:01:33.813Z,2.23
2019-01-18T05:04:02.266Z,4.93
2019-01-18T05:06:30.658Z,2.33
2019-01-18T05:08:59.056Z,2.63
2019-01-18T05:11:27.502Z,3.13
2019-01-18T05:13:55.886Z,2.87
2019-01-18T05:21:47.383Z,2.97
2019-01-18T05:26:49.446Z,3.23
2019-01-18T05:29:17.898Z,3.77
2019-01-18T05:32:05.484Z,2.23
2019-01-18T05:34:33.917Z,2.30
2019-01-18T05:37:02.314Z,2.67
2019-01-18T05:39:30.729Z,2.27
2019-01-18T05:41:59.141Z,2.13
2019-01-18T05:44:27.540Z,2.03
2019-01-18T05:46:55.929Z,2.13
2019-01-18T05:51:58.360Z,1.80
2019-01-18T05:54:26.812Z,2.20
2019-01-18T05:56:55.203Z,2.60
2019-01-18T05:59:23.607Z,3.73
2019-01-18T06:04:25.580Z,2.87
2019-01-18T06:06:54.007Z,2.03
2019-01-18T06:09:41.594Z,3.40
2019-01-18T06:14:44.354Z,2.67
2019-01-18T06:19:46.344Z,2.93
2019-01-18T06:24:48.462Z,4.10
2019-01-18T06:27:16.899Z,4.83
2019-01-18T06:29:45.292Z,4.70
2019-01-18T06:32:13.707Z,3.73
2019-01-18T06:34:42.133Z,1.60
2019-01-18T06:37:10.529Z,1.90
2019-01-18T06:39:38.921Z,3.03
2019-01-18T06:42:07.509Z,3.40
2019-01-18T06:44:35.907Z,2.83
2019-01-18T06:47:04.368Z,1.90
2019-01-18T06:49:32.797Z,2.10
2019-01-18T06:52:01.190Z,3.83
2019-01-18T06:54:29.589Z,2.33
2019-01-18T06:56:58.122Z,3.43
2019-01-18T06:59:26.514Z,3.13
2019-01-18T07:01:54.971Z,2.10
2019-01-18T07:04:23.390Z,2.33
2019-01-18T07:06:51.783Z,2.20
2019-01-18T07:09:20.175Z,1.20
2019-01-18T07:11:48.594Z,1.90
2019-01-18T07:14:16.991Z,1.87
2019-01-18T07:16:45.408Z,2.67
2019-01-18T07:19:14.143Z,1.50
2019-01-18T07:21:42.538Z,2.37
2019-01-18T07:24:10.930Z,1.60
2019-01-18T07:26:39.355Z,2.73
2019-01-18T07:29:08.115Z,2.57
2019-01-18T07:31:36.515Z,3.73
2019-01-18T07:34:05.099Z,2.93
2019-01-18T07:36:33.504Z,2.17
2019-01-18T07:39:01.906Z,1.43
2019-01-18T07:41:30.335Z,1.80
2019-01-18T07:43:58.719Z,2.30
2019-01-18T07:46:27.181Z,3.63
2019-01-18T07:48:55.610Z,3.60
2019-01-18T07:51:24.010Z,4.00
2019-01-18T07:53:52.405Z,2.00
2019-01-18T07:56:21.022Z,1.63
2019-01-18T07:58:49.463Z,3.60
2019-01-18T08:01:22.018Z,1.90
2019-01-18T08:03:48.123Z,1.17
2019-01-18T08:06:16.519Z,2.60
2019-01-18T08:08:44.911Z,3.40
2019-01-18T08:11:13.566Z,1.30
2019-01-18T08:13:41.960Z,1.63
2019-01-18T08:16:10.351Z,2.47
2019-01-18T08:18:38.893Z,2.33
2019-01-18T08:21:07.283Z,2.23
2019-01-18T08:23:35.678Z,2.13
2019-01-18T08:26:04.457Z,5.30
2019-01-18T08:28:32.855Z,2.63
2019-01-18T08:31:01.249Z,2.43
2019-01-18T08:33:29.750Z,5.67
2019-01-18T08:35:58.223Z,5.63
2019-01-18T08:38:26.610Z,1.87
2019-01-18T08:40:55.128Z,2.90
2019-01-18T08:43:23.520Z,2.33
2019-01-18T08:45:51.912Z,3.17
2019-01-18T08:48:20.587Z,1.77
2019-01-18T08:50:48.967Z,2.10
2019-01-18T08:53:17.365Z,8.80
2019-01-18T08:55:45.859Z,3.77
2019-01-18T08:58:14.254Z,3.83
2019-01-18T09:00:42.645Z,4.37
2019-01-18T09:03:11.151Z,5.90
2019-01-18T09:05:39.547Z,2.67
2019-01-18T09:08:08.103Z,2.00
2019-01-18T09:10:40.929Z,2.07
2019-01-18T09:13:09.333Z,5.70
2019-01-18T09:15:37.730Z,3.17
2019-01-18T09:18:06.639Z,3.70
2019-01-18T09:20:35.104Z,1.90
2019-01-18T09:23:03.722Z,5.33
2019-01-18T09:25:32.341Z,2.93
2019-01-18T09:28:00.731Z,5.73
2019-01-18T09:30:34.235Z,3.33
2019-01-18T09:33:04.275Z,2.30
2019-01-18T09:35:33.609Z,1.70
2019-01-18T09:38:04.706Z,4.67
2019-01-18T09:40:34.800Z,4.13
2019-01-18T09:43:03.259Z,3.47
2019-01-18T09:45:31.652Z,3.13
2019-01-18T09:48:00.082Z,3.63
2019-01-18T09:50:33.099Z,2.03
2019-01-18T09:53:03.236Z,4.00
2019-01-18T09:55:31.800Z,4.13
2019-01-18T09:58:00.185Z,1.57
2019-01-18T10:00:34.353Z,1.60
2019-01-18T10:03:03.020Z,2.63
2019-01-18T10:05:31.657Z,2.50
2019-01-18T10:08:00.289Z,2.83
2019-01-18T10:10:28.709Z,2.23
2019-01-18T10:12:57.165Z,3.10
2019-01-18T10:15:37.406Z,8.27
2019-01-18T10:18:07.004Z,3.93
2019-01-18T10:20:35.401Z,2.23
2019-01-18T10:23:04.424Z,3.00
2019-01-18T10:25:32.984Z,4.57
2019-01-18T10:28:01.380Z,5.00
2019-01-18T10:30:29.963Z,3.10
2019-01-18T10:32:58.525Z,4.17
2019-01-18T10:35:27.928Z,3.30
2019-01-18T10:37:56.348Z,8.87
2019-01-18T10:40:24.741Z,3.47
2019-01-18T10:42:53.202Z,3.73
2019-01-18T10:45:22.326Z,2.83
2019-01-18T10:47:51.202Z,3.13
2019-01-18T10:50:22.035Z,3.60
2019-01-18T10:52:50.456Z,2.70
2019-01-18T10:55:20.367Z,2.53
2019-01-18T10:57:48.827Z,2.03
2019-01-18T11:00:22.719Z,4.73
2019-01-18T11:02:52.047Z,3.67
2019-01-18T11:05:21.278Z,3.43
2019-01-18T11:07:50.466Z,7.27
2019-01-18T11:10:19.197Z,3.97
2019-01-18T11:12:47.758Z,3.33
2019-01-18T11:15:24.501Z,5.83
2019-01-18T11:17:52.900Z,6.10
2019-01-18T11:20:24.377Z,5.07
2019-01-18T11:22:53.938Z,2.63
2019-01-18T11:25:22.390Z,7.50
2019-01-18T11:27:50.786Z,5.53
2019-01-18T11:30:19.220Z,4.10
2019-01-18T11:32:47.684Z,7.47
2019-01-18T11:35:16.544Z,6.83
2019-01-18T11:37:45.284Z,4.03
2019-01-18T11:40:21.941Z,4.50
2019-01-18T11:42:51.034Z,2.80
2019-01-18T11:45:19.774Z,2.17
2019-01-18T11:47:48.603Z,3.57
2019-01-18T11:50:22.806Z,1.47
2019-01-18T11:52:51.193Z,2.37
2019-01-18T11:55:19.590Z,4.50
2019-01-18T11:57:48.641Z,3.50
2019-01-18T12:00:19.762Z,2.97
2019-01-18T12:02:48.440Z,3.83
2019-01-18T12:05:17.627Z,3.13
2019-01-18T12:07:46.070Z,8.07
2019-01-18T12:10:23.484Z,3.17
2019-01-18T12:12:51.952Z,1.67
2019-01-18T12:15:20.510Z,1.80
2019-01-18T12:17:48.939Z,5.33
2019-01-18T12:20:28.966Z,29.60
2019-01-18T12:22:57.636Z,63.97
2019-01-18T12:25:26.339Z,7.90
2019-01-18T12:27:54.723Z,4.37
2019-01-18T12:30:29.556Z,3.13
2019-01-18T12:32:58.060Z,6.07
2019-01-18T12:38:20.807Z,2.37
2019-01-18T12:43:36.655Z,5.83
2019-01-18T12:49:13.257Z,3.17
2019-01-18T12:51:41.723Z,2.73
2019-01-18T12:54:10.113Z,3.43
2019-01-18T12:56:38.547Z,5.13
2019-01-18T12:59:26.162Z,3.47
2019-01-18T13:04:28.983Z,3.90
2019-01-18T13:06:57.403Z,2.70
2019-01-18T13:09:25.804Z,5.27
2019-01-18T13:11:54.194Z,4.43
2019-01-18T13:14:22.643Z,5.07
2019-01-18T13:16:51.105Z,2.10
2019-01-18T13:22:13.770Z,3.27
2019-01-18T13:25:01.381Z,2.47
2019-01-18T13:35:32.523Z,4.93
2019-01-18T13:40:35.017Z,5.00
2019-01-18T13:43:22.688Z,15.43
2019-01-18T13:46:10.293Z,10.67
2019-01-18T13:48:57.994Z,6.57
2019-01-18T13:51:26.393Z,11.07
2019-01-18T13:53:54.791Z,10.53
2019-01-18T13:58:57.149Z,9.30
2019-01-18T14:01:25.539Z,9.23
2019-01-18T14:03:53.962Z,7.83
2019-01-18T14:06:22.360Z,11.70
2019-01-18T14:08:50.762Z,6.30
2019-01-18T14:11:59.187Z,21.93
2019-01-18T14:17:16.713Z,11.73
2019-01-18T14:19:45.115Z,13.43
2019-01-18T14:22:13.502Z,9.90
2019-01-18T14:27:23.301Z,9.97
2019-01-18T14:32:25.736Z,16.67
2019-01-18T14:37:28.156Z,5.27
2019-01-18T14:39:56.547Z,4.73
2019-01-18T14:42:44.172Z,5.23
2019-01-18T14:45:52.574Z,8.17
2019-01-18T14:50:55.429Z,10.13
2019-01-18T14:53:23.857Z,7.57
2019-01-18T14:55:52.250Z,3.70
2019-01-18T15:01:48.022Z,3.57
2019-01-18T15:06:50.554Z,4.40
2019-01-18T15:09:18.971Z,6.53
2019-01-18T15:11:47.370Z,6.10
2019-01-18T15:14:15.761Z,3.93
2019-01-18T15:16:44.217Z,8.57
2019-01-18T15:19:12.606Z,8.07
2019-01-18T15:21:40.994Z,8.87
2019-01-18T15:27:23.882Z,6.40
2019-01-18T15:29:52.290Z,10.53
2019-01-18T15:33:00.849Z,6.20
2019-01-18T15:36:10.664Z,7.20
2019-01-18T15:38:39.102Z,8.80
2019-01-18T15:41:26.813Z,10.73
2019-01-18T15:46:29.313Z,10.77
2019-01-18T15:48:57.749Z,11.70
2019-01-18T15:51:26.137Z,21.30
2019-01-18T15:53:54.542Z,10.27
2019-01-18T15:59:16.641Z,14.47
2019-01-18T16:02:04.425Z,10.97
2019-01-18T16:04:32.893Z,12.57
2019-01-18T16:07:01.293Z,13.67
2019-01-18T16:09:29.721Z,12.83
2019-01-18T16:11:58.185Z,9.83
2019-01-18T16:14:26.608Z,11.17
2019-01-18T16:19:47.919Z,10.70
2019-01-18T16:22:16.321Z,14.30
2019-01-18T16:24:44.800Z,15.03
2019-01-18T16:27:13.212Z,13.83
2019-01-18T16:29:41.611Z,18.53
2019-01-18T16:34:49.111Z,14.37
2019-01-18T16:37:57.431Z,24.17
2019-01-18T16:41:05.781Z,112.07
2019-01-18T16:44:14.111Z,18.20
2019-01-18T16:46:42.537Z,28.40
2019-01-18T16:49:10.941Z,30.80
2019-01-18T16:51:39.351Z,33.70
2019-01-18T16:54:27.303Z,32.00
2019-01-18T16:57:14.943Z,20.10
2019-01-18T17:02:57.660Z,17.20
2019-01-18T17:05:26.178Z,15.53
2019-01-18T17:07:54.575Z,14.17
2019-01-18T17:10:23.054Z,15.23
2019-01-18T17:12:51.475Z,14.63
2019-01-18T17:15:19.866Z,12.77
2019-01-18T17:17:48.282Z,11.10
2019-01-18T17:20:56.741Z,11.93
2019-01-18T17:23:25.139Z,18.50
2019-01-18T17:25:53.548Z,13.70
2019-01-18T17:31:07.503Z,15.20
2019-01-18T17:33:25.903Z,31.10
2019-01-18T17:36:34.266Z,17.50
2019-01-18T17:39:42.626Z,19.40
2019-01-18T17:42:50.995Z,18.97
2019-01-18T17:45:58.023Z,18.03
2019-01-18T17:49:06.353Z,21.80
2019-01-18T17:52:13.381Z,16.67
2019-01-18T17:55:21.703Z,19.70
2019-01-18T17:58:30.433Z,18.77
2019-01-18T18:01:38.801Z,20.00
2019-01-18T18:04:47.295Z,27.33
2019-01-18T18:07:54.285Z,36.33
2019-01-18T18:11:01.469Z,33.93
2019-01-18T18:14:10.103Z,34.77
2019-01-18T18:17:18.611Z,30.30
2019-01-18T18:20:25.612Z,23.87
2019-01-18T18:23:32.613Z,25.93
2019-01-18T18:26:40.937Z,23.40
2019-01-18T18:29:49.472Z,21.57
2019-01-18T18:32:56.463Z,18.40
2019-01-18T18:35:39.913Z,15.87
2019-01-18T18:38:26.397Z,15.73
2019-01-18T18:41:00.609Z,12.53
2019-01-18T18:44:05.322Z,14.60
2019-01-18T18:46:53.563Z,17.63
2019-01-18T18:49:40.083Z,22.10
2019-01-18T18:52:14.775Z,27.70
2019-01-18T18:55:01.591Z,33.20
2019-01-18T18:57:59.455Z,26.17
2019-01-18T19:00:39.694Z,24.43
2019-01-18T19:03:29.180Z,24.30
2019-01-18T19:06:32.096Z,20.90
2019-01-18T19:09:20.115Z,21.30
2019-01-18T19:11:51.587Z,24.33
2019-01-18T19:14:23.030Z,19.33
2019-01-18T19:17:03.400Z,18.10
2019-01-18T19:19:54.584Z,19.87
2019-01-18T19:22:42.541Z,22.73
2019-01-18T19:25:22.833Z,17.93
2019-01-18T19:27:54.392Z,13.37
2019-01-18T19:30:25.848Z,12.50
2019-01-18T19:33:02.925Z,15.17
2019-01-18T19:35:46.004Z,15.40
2019-01-18T19:38:37.345Z,23.87
2019-01-18T19:41:20.687Z,19.73
2019-01-18T19:43:54.780Z,18.90
2019-01-18T19:46:45.596Z,22.47
2019-01-18T19:49:26.119Z,15.87
2019-01-18T19:52:20.282Z,18.50
2019-01-18T19:54:54.671Z,11.70
2019-01-18T19:57:28.677Z,38.07
2019-01-18T20:00:20.224Z,15.30
2019-01-18T20:03:03.822Z,13.37
2019-01-18T20:05:38.228Z,16.80
2019-01-18T20:08:12.227Z,26.37
2019-01-18T20:10:50.009Z,17.50
2019-01-18T20:13:24.041Z,17.63
2019-01-18T20:16:12.267Z,11.37
2019-01-18T20:19:18.442Z,10.23
2019-01-18T20:22:04.868Z,15.13
2019-01-18T20:25:09.719Z,9.87
2019-01-18T20:27:53.086Z,15.90
2019-01-18T20:30:27.269Z,18.50
2019-01-18T20:33:01.737Z,14.77
2019-01-18T20:35:45.378Z,15.33
2019-01-18T20:38:33.770Z,13.27
2019-01-18T20:41:17.423Z,12.83
2019-01-18T20:43:57.708Z,9.23
2019-01-18T20:46:41.379Z,12.53
2019-01-18T20:49:13.415Z,13.70
2019-01-18T20:52:05.414Z,12.60
2019-01-18T20:54:55.079Z,13.03
2019-01-18T20:57:35.073Z,13.40
2019-01-18T21:00:18.506Z,9.60
2019-01-18T21:03:21.559Z,9.03
2019-01-18T21:05:59.104Z,6.70
2019-01-18T21:08:36.190Z,11.40
2019-01-18T21:11:10.501Z,11.10
2019-01-18T21:13:44.712Z,6.70
2019-01-18T21:16:21.910Z,7.13
2019-01-18T21:19:12.510Z,6.57
2019-01-18T21:22:05.103Z,8.40
2019-01-18T21:24:54.677Z,6.43
2019-01-18T21:27:32.130Z,6.80
2019-01-18T21:30:21.371Z,7.57
2019-01-18T21:33:13.921Z,4.60
2019-01-18T21:36:01.529Z,5.10
2019-01-18T21:38:51.157Z,5.53
2019-01-18T21:41:25.033Z,4.03
2019-01-18T21:44:20.954Z,3.93
2019-01-18T21:46:58.415Z,8.37
2019-01-18T21:49:42.189Z,8.47
2019-01-18T21:52:45.561Z,8.90
2019-01-18T21:55:19.905Z,5.87
2019-01-18T21:58:00.361Z,5.03
2019-01-18T22:00:48.392Z,6.37
2019-01-18T22:03:22.496Z,8.10
2019-01-18T22:06:10.687Z,5.73
2019-01-18T22:09:15.765Z,5.83
2019-01-18T22:12:02.549Z,5.27
2019-01-18T22:14:56.537Z,5.43
2019-01-18T22:17:28.043Z,6.97
2019-01-18T22:20:17.082Z,6.27
2019-01-18T22:23:07.386Z,6.97
2019-01-18T22:25:50.772Z,7.87
2019-01-18T22:28:28.109Z,6.00
2019-01-18T22:31:17.035Z,9.73
2019-01-18T22:33:57.215Z,5.97
2019-01-18T22:36:57.219Z,2.97
2019-01-18T22:39:31.465Z,3.80
2019-01-18T22:42:11.581Z,4.93
2019-01-18T22:45:08.942Z,2.60
2019-01-18T22:48:01.334Z,3.23
2019-01-18T22:50:58.931Z,4.00
2019-01-18T22:53:30.388Z,3.80
2019-01-18T22:56:07.075Z,4.03
2019-01-18T22:58:53.774Z,4.73
2019-01-18T23:01:32.219Z,8.70
2019-01-18T23:04:26.220Z,3.53
2019-01-18T23:07:12.089Z,3.53
2019-01-18T23:10:07.680Z,5.13
2019-01-18T23:12:42.023Z,4.33
2019-01-18T23:15:32.758Z,4.97
2019-01-18T23:18:06.937Z,4.77
2019-01-18T23:21:04.103Z,3.43
2019-01-18T23:23:41.991Z,5.60
2019-01-18T23:26:22.293Z,4.00
2019-01-18T23:29:08.729Z,5.43
2019-01-18T23:31:48.329Z,2.97
2019-01-18T23:34:22.860Z,4.27
2019-01-18T23:36:56.968Z,3.10
2019-01-18T23:39:28.447Z,3.40
2019-01-18T23:42:16.179Z,5.67
2019-01-18T23:44:59.459Z,4.37
2019-01-18T23:47:39.864Z,4.10
2019-01-18T23:50:31.185Z,3.33
2019-01-18T23:53:17.676Z,3.93
2019-01-18T23:55:54.813Z,4.50
2019-01-18T23:58:32.214Z,4.40
